sensor_id;sensor_type;location;lat;lon;timestamp;pressure;altitude;pressure_sealevel;temperature;humidity
16030;BME280;34770;49.272;11.070;2022-10-24T00:02:11;97492.28;;;14.65;100.00
16030;BME280;34770;49.272;11.070;2022-10-24T00:04:38;97506.28;;;14.61;100.00
16030;BME280;34770;49.272;11.070;2022-10-24T00:07:05;97497.03;;;14.54;100.00
16030;BME280;34770;49.272;11.070;2022-10-24T00:09:32;97465.66;;;14.30;100.00
16030;BME280;34770;49.272;11.070;2022-10-24T00:11:58;97497.75;;;14.47;100.00
16030;BME280;34770;49.272;11.070;2022-10-24T00:14:23;97506.13;;;14.43;100.00
16030;BME280;34770;49.272;11.070;2022-10-24T00:16:49;97500.00;;;14.27;100.00
16030;BME280;34770;49.272;11.070;2022-10-24T00:19:14;97482.28;;;14.12;100.00
16030;BME280;34770;49.272;11.070;2022-10-24T00:21:39;97500.78;;;14.24;100.00
16030;BME280;34770;49.272;11.070;2022-10-24T06:26:11;97451.94;;;14.66;100.00
16030;BME280;34770;49.272;11.070;2022-10-24T06:28:39;97488.50;;;14.95;100.00
16030;BME280;34770;49.272;11.070;2022-10-24T06:31:05;97496.91;;;14.91;100.00
16030;BME280;34770;49.272;11.070;2022-10-24T06:33:30;97496.88;;;14.88;100.00
16030;BME280;34770;49.272;11.070;2022-10-24T06:36:00;97498.50;;;14.96;100.00
16030;BME280;34770;49.272;11.070;2022-10-24T06:38:26;97488.81;;;14.82;100.00
16030;BME280;34770;49.272;11.070;2022-10-24T06:40:52;97494.91;;;14.95;100.00
16030;BME280;34770;49.272;11.070;2022-10-24T06:43:17;97502.53;;;14.95;100.00
16030;BME280;34770;49.272;11.070;2022-10-24T06:45:43;97496.13;;;14.98;100.00
16030;BME280;34770;49.272;11.070;2022-10-24T06:48:09;97496.91;;;14.95;100.00
16030;BME280;34770;49.272;11.070;2022-10-24T06:50:35;97493.72;;;14.96;100.00
16030;BME280;34770;49.272;11.070;2022-10-24T06:53:03;97497.75;;;15.03;100.00
16030;BME280;34770;49.272;11.070;2022-10-24T06:55:28;97484.94;;;15.05;100.00
16030;BME280;34770;49.272;11.070;2022-10-24T06:57:54;97487.72;;;15.02;100.00
16030;BME280;34770;49.272;11.070;2022-10-24T07:00:19;97479.34;;;15.05;100.00
16030;BME280;34770;49.272;11.070;2022-10-24T07:02:44;97495.38;;;15.08;100.00
16030;BME280;34770;49.272;11.070;2022-10-24T07:05:10;97484.16;;;15.05;100.00
16030;BME280;34770;49.272;11.070;2022-10-24T07:07:39;97499.00;;;15.12;100.00
16030;BME280;34770;49.272;11.070;2022-10-24T07:10:05;97503.41;;;15.13;100.00
16030;BME280;34770;49.272;11.070;2022-10-24T07:12:31;97505.03;;;15.14;100.00
16030;BME280;34770;49.272;11.070;2022-10-24T07:14:56;97502.59;;;15.13;100.00
16030;BME280;34770;49.272;11.070;2022-10-24T07:17:21;97520.66;;;15.19;100.00
16030;BME280;34770;49.272;11.070;2022-10-24T07:19:53;97511.00;;;15.13;100.00
16030;BME280;34770;49.272;11.070;2022-10-24T07:22:19;97492.16;;;15.06;100.00
16030;BME280;34770;49.272;11.070;2022-10-24T07:24:50;97545.13;;;15.26;100.00
16030;BME280;34770;49.272;11.070;2022-10-24T07:27:16;97555.13;;;15.27;100.00
16030;BME280;34770;49.272;11.070;2022-10-24T07:29:41;97568.38;;;15.34;100.00
16030;BME280;34770;49.272;11.070;2022-10-24T07:32:06;97569.16;;;15.27;100.00
16030;BME280;34770;49.272;11.070;2022-10-24T07:34:31;97599.66;;;15.39;100.00
16030;BME280;34770;49.272;11.070;2022-10-24T07:36:58;97617.28;;;15.36;100.00
16030;BME280;34770;49.272;11.070;2022-10-24T07:39:24;97619.69;;;15.41;100.00
16030;BME280;34770;49.272;11.070;2022-10-24T07:41:49;97634.94;;;15.44;100.00
16030;BME280;34770;49.272;11.070;2022-10-24T07:44:14;97656.63;;;15.51;100.00
16030;BME280;34770;49.272;11.070;2022-10-24T07:46:40;97660.56;;;15.42;100.00
16030;BME280;34770;49.272;11.070;2022-10-24T07:49:07;97660.50;;;15.31;100.00
16030;BME280;34770;49.272;11.070;2022-10-24T07:51:32;97682.16;;;15.38;100.00
16030;BME280;34770;49.272;11.070;2022-10-24T07:53:58;97714.50;;;15.25;100.00
16030;BME280;34770;49.272;11.070;2022-10-24T07:56:23;97711.28;;;15.19;100.00
16030;BME280;34770;49.272;11.070;2022-10-24T07:58:49;97705.22;;;15.13;100.00
16030;BME280;34770;49.272;11.070;2022-10-24T08:01:19;97701.47;;;14.95;100.00
16030;BME280;34770;49.272;11.070;2022-10-24T08:03:45;97649.34;;;14.45;100.00
16030;BME280;34770;49.272;11.070;2022-10-24T08:06:17;97673.97;;;14.66;100.00
16030;BME280;34770;49.272;11.070;2022-10-24T08:08:44;97657.19;;;14.66;100.00
16030;BME280;34770;49.272;11.070;2022-10-24T08:11:18;97646.84;;;14.74;100.00
16030;BME280;34770;49.272;11.070;2022-10-24T08:13:46;97640.84;;;14.72;100.00
16030;BME280;34770;49.272;11.070;2022-10-24T08:16:13;97640.00;;;14.72;100.00
16030;BME280;34770;49.272;11.070;2022-10-24T08:18:39;97624.75;;;14.65;100.00
16030;BME280;34770;49.272;11.070;2022-10-24T08:21:09;97629.63;;;14.72;100.00
16030;BME280;34770;49.272;11.070;2022-10-24T08:23:37;97631.66;;;14.79;100.00
16030;BME280;34770;49.272;11.070;2022-10-24T08:26:07;97616.38;;;14.69;100.00
16030;BME280;34770;49.272;11.070;2022-10-24T08:28:33;97597.41;;;14.51;100.00
16030;BME280;34770;49.272;11.070;2022-10-24T08:31:01;97608.03;;;14.76;100.00
16030;BME280;34770;49.272;11.070;2022-10-24T08:33:27;97614.81;;;14.75;100.00
16030;BME280;34770;49.272;11.070;2022-10-24T08:35:57;97620.38;;;14.68;100.00
16030;BME280;34770;49.272;11.070;2022-10-24T08:38:23;97613.56;;;14.65;100.00
16030;BME280;34770;49.272;11.070;2022-10-24T08:40:48;97607.84;;;14.58;100.00
16030;BME280;34770;49.272;11.070;2022-10-24T08:43:15;97606.63;;;14.56;100.00
16030;BME280;34770;49.272;11.070;2022-10-24T08:48:26;97606.25;;;14.54;100.00
16030;BME280;34770;49.272;11.070;2022-10-24T08:50:58;97590.56;;;14.45;100.00
16030;BME280;34770;49.272;11.070;2022-10-24T08:53:28;97617.06;;;14.59;100.00
16030;BME280;34770;49.272;11.070;2022-10-24T08:55:57;97633.22;;;14.73;100.00
16030;BME280;34770;49.272;11.070;2022-10-24T09:00:53;97628.94;;;14.86;100.00
16030;BME280;34770;49.272;11.070;2022-10-24T09:06:11;97609.84;;;15.03;100.00
16030;BME280;34770;49.272;11.070;2022-10-24T09:08:42;97617.50;;;15.13;100.00
16030;BME280;34770;49.272;11.070;2022-10-24T09:11:15;97588.59;;;14.98;100.00
16030;BME280;34770;49.272;11.070;2022-10-24T09:13:45;97617.50;;;15.06;100.00
16030;BME280;34770;49.272;11.070;2022-10-24T09:16:16;97604.19;;;14.95;100.00
16030;BME280;34770;49.272;11.070;2022-10-24T09:18:45;97640.28;;;15.04;100.00
16030;BME280;34770;49.272;11.070;2022-10-24T09:21:13;97621.38;;;14.90;100.00
16030;BME280;34770;49.272;11.070;2022-10-24T09:23:40;97624.97;;;14.91;100.00
16030;BME280;34770;49.272;11.070;2022-10-24T09:26:13;97628.25;;;15.00;100.00
16030;BME280;34770;49.272;11.070;2022-10-24T09:28:40;97627.03;;;14.97;100.00
16030;BME280;34770;49.272;11.070;2022-10-24T09:31:18;97630.63;;;14.98;100.00
16030;BME280;34770;49.272;11.070;2022-10-24T09:33:47;97635.81;;;14.96;100.00
16030;BME280;34770;49.272;11.070;2022-10-24T09:36:16;97643.47;;;15.03;100.00
16030;BME280;34770;49.272;11.070;2022-10-24T09:38:43;97653.88;;;14.98;100.00
16030;BME280;34770;49.272;11.070;2022-10-24T09:41:21;97625.34;;;14.86;100.00
16030;BME280;34770;49.272;11.070;2022-10-24T09:43:53;97653.84;;;14.95;100.00
16030;BME280;34770;49.272;11.070;2022-10-24T09:46:26;97631.00;;;14.93;100.00
16030;BME280;34770;49.272;11.070;2022-10-24T09:49:22;97605.34;;;14.91;100.00
16030;BME280;34770;49.272;11.070;2022-10-24T09:54:29;97602.13;;;14.89;100.00
16030;BME280;34770;49.272;11.070;2022-10-24T09:59:44;97589.22;;;14.73;100.00
16030;BME280;34770;49.272;11.070;2022-10-24T10:04:37;97571.47;;;14.62;100.00
16030;BME280;34770;49.272;11.070;2022-10-24T10:07:25;97586.41;;;14.73;100.00
16030;BME280;34770;49.272;11.070;2022-10-24T10:09:55;97583.09;;;14.64;100.00
16030;BME280;34770;49.272;11.070;2022-10-24T10:14:57;97558.16;;;14.44;100.00
16030;BME280;34770;49.272;11.070;2022-10-24T10:17:26;97612.72;;;14.65;100.00
16030;BME280;34770;49.272;11.070;2022-10-24T10:19:53;97599.81;;;14.53;100.00
16030;BME280;34770;49.272;11.070;2022-10-24T10:22:25;97591.44;;;14.57;100.00
16030;BME280;34770;49.272;11.070;2022-10-24T10:24:51;97602.38;;;14.69;100.00
16030;BME280;34770;49.272;11.070;2022-10-24T10:27:26;97560.03;;;14.74;100.00
16030;BME280;34770;49.272;11.070;2022-10-24T10:33:10;97532.03;;;14.78;100.00
16030;BME280;34770;49.272;11.070;2022-10-24T10:41:49;97582.06;;;14.79;100.00
16030;BME280;34770;49.272;11.070;2022-10-24T10:52:46;97630.59;;;14.94;100.00
16030;BME280;34770;49.272;11.070;2022-10-24T10:58:46;97627.44;;;15.03;100.00
16030;BME280;34770;49.272;11.070;2022-10-24T11:07:39;97609.16;;;15.24;100.00
16030;BME280;34770;49.272;11.070;2022-10-24T11:09:46;97618.72;;;15.12;100.00
16030;BME280;34770;49.272;11.070;2022-10-24T11:12:23;97658.13;;;15.37;100.00
16030;BME280;34770;49.272;11.070;2022-10-24T11:15:19;97634.44;;;15.31;100.00
16030;BME280;34770;49.272;11.070;2022-10-24T11:17:50;97644.97;;;15.45;100.00
16030;BME280;34770;49.272;11.070;2022-10-24T11:23:06;97638.50;;;15.41;100.00
16030;BME280;34770;49.272;11.070;2022-10-24T11:25:47;97628.13;;;15.41;100.00
16030;BME280;34770;49.272;11.070;2022-10-24T11:28:26;97632.03;;;15.29;100.00
16030;BME280;34770;49.272;11.070;2022-10-24T11:31:07;97609.22;;;15.31;100.00
16030;BME280;34770;49.272;11.070;2022-10-24T11:33:41;97586.78;;;15.31;100.00
16030;BME280;34770;49.272;11.070;2022-10-24T11:36:10;97597.25;;;15.38;100.00
16030;BME280;34770;49.272;11.070;2022-10-24T11:38:44;97601.66;;;15.35;100.00
16030;BME280;34770;49.272;11.070;2022-10-24T11:41:33;97620.84;;;15.33;100.00
16030;BME280;34770;49.272;11.070;2022-10-24T11:44:25;97619.66;;;15.34;100.00
16030;BME280;34770;49.272;11.070;2022-10-24T11:50:26;97603.63;;;15.35;100.00
16030;BME280;34770;49.272;11.070;2022-10-24T11:53:11;97579.97;;;15.28;100.00
16030;BME280;34770;49.272;11.070;2022-10-24T11:55:40;97608.47;;;15.41;100.00
16030;BME280;34770;49.272;11.070;2022-10-24T11:58:13;97598.09;;;15.45;100.00
16030;BME280;34770;49.272;11.070;2022-10-24T12:01:00;97586.81;;;15.38;100.00
16030;BME280;34770;49.272;11.070;2022-10-24T12:11:45;97592.94;;;15.55;100.00
16030;BME280;34770;49.272;11.070;2022-10-24T12:19:41;97587.72;;;15.53;100.00
16030;BME280;34770;49.272;11.070;2022-10-24T12:22:15;97584.94;;;15.57;100.00
16030;BME280;34770;49.272;11.070;2022-10-24T15:22:58;97507.78;;;14.48;100.00
16030;BME280;34770;49.272;11.070;2022-10-24T15:25:30;97590.69;;;15.08;100.00
16030;BME280;34770;49.272;11.070;2022-10-24T15:27:59;97540.66;;;14.58;100.00
16030;BME280;34770;49.272;11.070;2022-10-24T15:30:40;97596.22;;;15.01;100.00
16030;BME280;34770;49.272;11.070;2022-10-24T18:28:57;97670.72;;;12.82;100.00
16030;BME280;34770;49.272;11.070;2022-10-24T18:31:26;97679.91;;;12.82;100.00
16030;BME280;34770;49.272;11.070;2022-10-24T18:33:52;97674.88;;;12.91;100.00
16030;BME280;34770;49.272;11.070;2022-10-24T18:36:23;97689.56;;;12.88;100.00
16030;BME280;34770;49.272;11.070;2022-10-24T18:38:50;97666.78;;;12.63;100.00
16030;BME280;34770;49.272;11.070;2022-10-24T18:44:26;97664.63;;;12.76;100.00
16030;BME280;34770;49.272;11.070;2022-10-24T18:46:55;97644.53;;;12.67;100.00
16030;BME280;34770;49.272;11.070;2022-10-24T18:49:21;97659.56;;;12.58;100.00
16030;BME280;34770;49.272;11.070;2022-10-24T18:51:54;97685.75;;;12.73;100.00
16030;BME280;34770;49.272;11.070;2022-10-24T18:54:21;97687.72;;;12.73;100.00
16030;BME280;34770;49.272;11.070;2022-10-24T18:56:47;97692.06;;;12.70;100.00
16030;BME280;34770;49.272;11.070;2022-10-24T18:59:20;97687.03;;;12.80;100.00
16030;BME280;34770;49.272;11.070;2022-10-24T19:04:41;97658.59;;;12.74;100.00
16030;BME280;34770;49.272;11.070;2022-10-24T19:07:07;97677.84;;;13.02;100.00
16030;BME280;34770;49.272;11.070;2022-10-24T19:09:33;97652.84;;;12.86;100.00
16030;BME280;34770;49.272;11.070;2022-10-24T19:11:59;97679.41;;;13.00;100.00
16030;BME280;34770;49.272;11.070;2022-10-24T19:14:24;97661.53;;;12.81;100.00
16030;BME280;34770;49.272;11.070;2022-10-24T19:16:50;97685.84;;;13.04;100.00
16030;BME280;34770;49.272;11.070;2022-10-24T19:19:29;97677.56;;;13.11;100.00
16030;BME280;34770;49.272;11.070;2022-10-24T19:21:55;97670.38;;;13.10;100.00
16030;BME280;34770;49.272;11.070;2022-10-24T19:24:20;97675.53;;;13.08;100.00
16030;BME280;34770;49.272;11.070;2022-10-24T19:26:46;97648.28;;;13.01;100.00
16030;BME280;34770;49.272;11.070;2022-10-24T19:29:12;97658.69;;;13.04;100.00
16030;BME280;34770;49.272;11.070;2022-10-24T19:31:37;97650.31;;;13.04;100.00
16030;BME280;34770;49.272;11.070;2022-10-24T19:34:03;97651.81;;;12.98;100.00
16030;BME280;34770;49.272;11.070;2022-10-24T19:36:29;97662.69;;;13.03;100.00
16030;BME280;34770;49.272;11.070;2022-10-24T19:38:55;97669.13;;;13.07;100.00
16030;BME280;34770;49.272;11.070;2022-10-24T19:41:22;97670.00;;;13.12;100.00
16030;BME280;34770;49.272;11.070;2022-10-24T19:43:47;97669.19;;;13.11;100.00
16030;BME280;34770;49.272;11.070;2022-10-24T19:46:14;97655.91;;;13.04;100.00
16030;BME280;34770;49.272;11.070;2022-10-24T19:48:40;97667.25;;;13.15;100.00
16030;BME280;34770;49.272;11.070;2022-10-24T19:51:11;97669.63;;;13.13;100.00
16030;BME280;34770;49.272;11.070;2022-10-24T19:53:41;97669.19;;;13.11;100.00
16030;BME280;34770;49.272;11.070;2022-10-24T19:56:09;97694.00;;;13.16;100.00
16030;BME280;34770;49.272;11.070;2022-10-24T19:58:36;97702.72;;;13.11;100.00
16030;BME280;34770;49.272;11.070;2022-10-24T20:01:07;97695.41;;;13.03;100.00
16030;BME280;34770;49.272;11.070;2022-10-24T20:03:41;97705.19;;;13.16;100.00
16030;BME280;34770;49.272;11.070;2022-10-24T20:06:08;97716.44;;;13.20;100.00
16030;BME280;34770;49.272;11.070;2022-10-24T20:08:34;97725.69;;;13.24;100.00
16030;BME280;34770;49.272;11.070;2022-10-24T20:11:00;97735.91;;;13.39;100.00
16030;BME280;34770;49.272;11.070;2022-10-24T20:13:25;97718.44;;;13.19;100.00
16030;BME280;34770;49.272;11.070;2022-10-24T20:15:59;97729.34;;;13.28;100.00
16030;BME280;34770;49.272;11.070;2022-10-24T20:18:26;97711.72;;;13.24;100.00
16030;BME280;34770;49.272;11.070;2022-10-24T20:20:52;97738.22;;;13.34;100.00
16030;BME280;34770;49.272;11.070;2022-10-24T20:23:19;97748.78;;;13.44;100.00
16030;BME280;34770;49.272;11.070;2022-10-24T20:25:47;97721.28;;;13.23;100.00
16030;BME280;34770;49.272;11.070;2022-10-24T20:28:12;97756.63;;;13.35;100.00
16030;BME280;34770;49.272;11.070;2022-10-24T20:30:43;97723.78;;;13.05;100.00
16030;BME280;34770;49.272;11.070;2022-10-24T20:33:09;97757.56;;;13.19;100.00
16030;BME280;34770;49.272;11.070;2022-10-24T20:35:35;97757.75;;;13.07;100.00
16030;BME280;34770;49.272;11.070;2022-10-24T20:38:00;97753.34;;;13.06;100.00
16030;BME280;34770;49.272;11.070;2022-10-24T20:40:26;97712.84;;;12.73;100.00
16030;BME280;34770;49.272;11.070;2022-10-24T20:42:52;97740.41;;;12.98;100.00
16030;BME280;34770;49.272;11.070;2022-10-24T20:45:17;97728.25;;;12.86;100.00
16030;BME280;34770;49.272;11.070;2022-10-24T20:47:42;97737.38;;;12.83;100.00
16030;BME280;34770;49.272;11.070;2022-10-24T20:50:08;97729.97;;;12.71;100.00
16030;BME280;34770;49.272;11.070;2022-10-24T20:52:33;97728.00;;;12.72;100.00
16030;BME280;34770;49.272;11.070;2022-10-24T20:54:59;97731.16;;;12.70;100.00
16030;BME280;34770;49.272;11.070;2022-10-24T20:57:24;97708.19;;;12.57;100.00
16030;BME280;34770;49.272;11.070;2022-10-24T20:59:49;97696.06;;;12.50;100.00
16030;BME280;34770;49.272;11.070;2022-10-24T21:02:15;97717.13;;;12.67;100.00
16030;BME280;34770;49.272;11.070;2022-10-24T21:04:40;97718.66;;;12.64;100.00
16030;BME280;34770;49.272;11.070;2022-10-24T21:07:05;97728.16;;;12.59;100.00
16030;BME280;34770;49.272;11.070;2022-10-24T21:09:31;97726.84;;;12.53;100.00
16030;BME280;34770;49.272;11.070;2022-10-24T21:11:58;97720.41;;;12.49;100.00
16030;BME280;34770;49.272;11.070;2022-10-24T21:14:23;97732.94;;;12.59;100.00
16030;BME280;34770;49.272;11.070;2022-10-24T21:16:49;97721.41;;;12.60;100.00
16030;BME280;34770;49.272;11.070;2022-10-24T21:19:14;97728.03;;;12.52;100.00
16030;BME280;34770;49.272;11.070;2022-10-24T21:21:39;97740.66;;;12.46;100.00
16030;BME280;34770;49.272;11.070;2022-10-24T21:24:05;97741.25;;;12.55;100.00
16030;BME280;34770;49.272;11.070;2022-10-24T21:26:32;97734.34;;;12.49;100.00
16030;BME280;34770;49.272;11.070;2022-10-24T21:28:57;97749.19;;;12.53;100.00
16030;BME280;34770;49.272;11.070;2022-10-24T21:31:23;97743.09;;;12.48;100.00
16030;BME280;34770;49.272;11.070;2022-10-24T21:33:49;97735.41;;;12.41;100.00
16030;BME280;34770;49.272;11.070;2022-10-24T21:36:17;97721.81;;;12.39;100.00
16030;BME280;34770;49.272;11.070;2022-10-24T21:38:48;97724.47;;;12.32;100.00
16030;BME280;34770;49.272;11.070;2022-10-24T21:41:17;97747.38;;;12.41;100.00
16030;BME280;34770;49.272;11.070;2022-10-24T21:43:43;97734.53;;;12.37;100.00
16030;BME280;34770;49.272;11.070;2022-10-24T21:46:14;97728.88;;;12.33;100.00
16030;BME280;34770;49.272;11.070;2022-10-24T21:48:41;97751.53;;;12.32;100.00
16030;BME280;34770;49.272;11.070;2022-10-24T21:51:12;97751.06;;;12.26;100.00
16030;BME280;34770;49.272;11.070;2022-10-24T21:56:10;97761.31;;;12.22;100.00
16030;BME280;34770;49.272;11.070;2022-10-24T21:58:36;97740.09;;;11.97;100.00
16030;BME280;34770;49.272;11.070;2022-10-24T22:01:09;97743.78;;;12.02;100.00
16030;BME280;34770;49.272;11.070;2022-10-24T22:03:34;97749.84;;;12.07;100.00
16030;BME280;34770;49.272;11.070;2022-10-24T22:05:59;97742.69;;;11.90;100.00
16030;BME280;34770;49.272;11.070;2022-10-24T22:08:25;97781.81;;;12.10;100.00
16030;BME280;34770;49.272;11.070;2022-10-24T22:10:55;97799.66;;;12.05;100.00
16030;BME280;34770;49.272;11.070;2022-10-24T22:13:21;97794.88;;;12.06;100.00
16030;BME280;34770;49.272;11.070;2022-10-24T22:15:46;97800.97;;;12.11;100.00
16030;BME280;34770;49.272;11.070;2022-10-24T22:18:11;97803.22;;;12.06;100.00
16030;BME280;34770;49.272;11.070;2022-10-24T22:20:37;97815.28;;;12.10;100.00
16030;BME280;34770;49.272;11.070;2022-10-24T22:23:02;97813.16;;;12.03;100.00
16030;BME280;34770;49.272;11.070;2022-10-24T22:25:27;97816.72;;;12.04;100.00
16030;BME280;34770;49.272;11.070;2022-10-24T22:27:53;97814.00;;;12.07;100.00
16030;BME280;34770;49.272;11.070;2022-10-24T22:30:18;97819.09;;;12.02;100.00
16030;BME280;34770;49.272;11.070;2022-10-24T22:32:43;97768.84;;;11.82;100.00
16030;BME280;34770;49.272;11.070;2022-10-24T22:35:09;97809.25;;;12.08;100.00
16030;BME280;34770;49.272;11.070;2022-10-24T22:37:35;97818.97;;;12.14;100.00
16030;BME280;34770;49.272;11.070;2022-10-24T22:40:01;97771.69;;;11.86;100.00
16030;BME280;34770;49.272;11.070;2022-10-24T22:42:26;97803.34;;;11.93;100.00
16030;BME280;34770;49.272;11.070;2022-10-24T22:44:52;97818.22;;;12.17;100.00
16030;BME280;34770;49.272;11.070;2022-10-24T22:50:13;97805.47;;;12.16;100.00
16030;BME280;34770;49.272;11.070;2022-10-24T22:52:43;97793.31;;;12.08;100.00
16030;BME280;34770;49.272;11.070;2022-10-24T22:55:30;97796.78;;;12.21;100.00
16030;BME280;34770;49.272;11.070;2022-10-24T22:57:57;97796.34;;;12.19;100.00
16030;BME280;34770;49.272;11.070;2022-10-24T23:00:23;97809.56;;;12.22;100.00
16030;BME280;34770;49.272;11.070;2022-10-24T23:02:50;97817.78;;;12.15;100.00
16030;BME280;34770;49.272;11.070;2022-10-24T23:05:31;97827.63;;;12.09;100.00
16030;BME280;34770;49.272;11.070;2022-10-24T23:08:04;97823.78;;;12.17;100.00
16030;BME280;34770;49.272;11.070;2022-10-24T23:10:30;97812.44;;;12.06;100.00
16030;BME280;34770;49.272;11.070;2022-10-24T23:12:56;97807.81;;;12.14;100.00
16030;BME280;34770;49.272;11.070;2022-10-24T23:15:22;97814.00;;;12.07;100.00
16030;BME280;34770;49.272;11.070;2022-10-24T23:17:48;97779.25;;;11.85;100.00
16030;BME280;34770;49.272;11.070;2022-10-24T23:20:36;97807.47;;;12.00;100.00
16030;BME280;34770;49.272;11.070;2022-10-24T23:23:03;97778.38;;;11.81;100.00
16030;BME280;34770;49.272;11.070;2022-10-24T23:25:29;97812.50;;;11.94;100.00
16030;BME280;34770;49.272;11.070;2022-10-24T23:28:07;97805.66;;;11.91;100.00
16030;BME280;34770;49.272;11.070;2022-10-24T23:30:36;97823.06;;;11.85;100.00
16030;BME280;34770;49.272;11.070;2022-10-24T23:33:02;97826.56;;;11.81;100.00
16030;BME280;34770;49.272;11.070;2022-10-24T23:35:27;97824.59;;;11.82;100.00
16030;BME280;34770;49.272;11.070;2022-10-24T23:37:53;97820.31;;;11.53;100.00
16030;BME280;34770;49.272;11.070;2022-10-24T23:42:51;97825.38;;;11.47;100.00
16030;BME280;34770;49.272;11.070;2022-10-24T23:45:19;97818.69;;;11.36;100.00
16030;BME280;34770;49.272;11.070;2022-10-24T23:48:03;97797.03;;;11.13;100.00
16030;BME280;34770;49.272;11.070;2022-10-24T23:53:30;97817.63;;;11.08;100.00
16030;BME280;34770;49.272;11.070;2022-10-24T23:55:57;97825.88;;;11.05;100.00
16030;BME280;34770;49.272;11.070;2022-10-24T23:58:23;97820.66;;;11.03;100.00
